Time;durP1;ratioP1;P1;durP2;ratioP2;P2;SDS_P1;SDS_P2;PMS_P1;PMS_P2;Temp;Humidity;BMP_temperature;BMP_pressure;BME280_temperature;BME280_humidity;BME280_pressure;Samples;Min_cycle;Max_cycle;Signal;HPM_P1;HPM_P2
2023/03/26 00:01:48;;;;;;;7.95;2.15;;;16.50;98.40;;;;;;10454989;28;20048;-22
2023/03/26 00:06:52;;;;;;;8.05;1.17;;;17.30;94.70;;;;;;10473540;28;20064;-24
2023/03/26 00:11:55;;;;;;;6.88;1.77;;;17.60;93.50;;;;;;10452719;28;20821;-24
2023/03/26 00:16:57;;;;;;;10.23;1.45;;;16.60;97.90;;;;;;10454399;28;20067;-24
2023/03/26 00:22:02;;;;;;;8.03;1.63;;;16.90;95.00;;;;;;10455148;28;20131;-23
2023/03/26 00:27:04;;;;;;;19.52;3.10;;;16.90;95.60;;;;;;10448694;28;20645;-24
2023/03/26 00:32:06;;;;;;;9.23;1.92;;;16.90;95.10;;;;;;10445995;28;20057;-23
2023/03/26 00:37:13;;;;;;;6.65;1.65;;;16.60;97.20;;;;;;10454145;28;20136;-24
2023/03/26 00:42:14;;;;;;;8.75;1.33;;;17.20;95.30;;;;;;10454376;28;20041;-23
2023/03/26 00:47:16;;;;;;;4.20;1.00;;;16.90;96.50;;;;;;10468401;28;20136;-26
2023/03/26 00:52:20;;;;;;;4.27;1.03;;;17.60;93.40;;;;;;10451209;28;20056;-27
2023/03/26 00:57:22;;;;;;;7.80;1.70;;;17.90;92.00;;;;;;10450425;28;20049;-24
2023/03/26 01:02:26;;;;;;;7.78;1.83;;;17.80;92.20;;;;;;10451133;28;20052;-24
2023/03/26 01:07:29;;;;;;;8.38;1.60;;;17.90;92.20;;;;;;10448796;28;20738;-24
2023/03/26 01:12:32;;;;;;;6.22;1.88;;;17.70;92.80;;;;;;10440673;28;20084;-23
2023/03/26 01:17:34;;;;;;;4.20;1.35;;;17.30;94.00;;;;;;10452844;28;20074;-23
2023/03/26 01:22:38;;;;;;;7.20;1.58;;;17.30;94.50;;;;;;10455026;28;20078;-23
2023/03/26 01:27:46;;;;;;;9.27;2.08;;;17.90;92.10;;;;;;10446581;28;20055;-23
2023/03/26 01:33:02;;;;;;;9.52;2.25;;;18.00;91.50;;;;;;10460962;28;20508;-23
2023/03/26 01:38:21;;;;;;;12.27;2.78;;;18.20;90.90;;;;;;10454539;28;20148;-23
2023/03/26 01:43:35;;;;;;;8.82;2.00;;;18.20;90.60;;;;;;10454785;28;20070;-23
2023/03/26 01:48:40;;;;;;;10.38;2.03;;;18.20;90.70;;;;;;10462843;28;20123;-23
2023/03/26 01:53:46;;;;;;;7.15;1.70;;;18.30;90.50;;;;;;10464021;28;20056;-23
2023/03/26 01:59:03;;;;;;;18.70;2.63;;;18.20;90.50;;;;;;10454102;28;20106;-24
2023/03/26 02:04:14;;;;;;;5.97;1.58;;;18.00;91.40;;;;;;10448078;28;20080;-23
2023/03/26 02:09:22;;;;;;;20.05;3.97;;;18.10;91.30;;;;;;10457796;28;20436;-22
2023/03/26 02:14:28;;;;;;;15.32;3.35;;;16.70;93.20;;;;;;10449300;28;20137;-23
2023/03/26 02:19:30;;;;;;;10.77;2.35;;;16.70;96.40;;;;;;10447562;28;20057;-25
2023/03/26 02:24:32;;;;;;;9.90;2.30;;;17.10;95.50;;;;;;10448178;28;20045;-24
2023/03/26 02:29:37;;;;;;;8.70;2.07;;;17.30;94.70;;;;;;10446407;28;20471;-22
2023/03/26 02:34:39;;;;;;;10.73;2.25;;;17.70;91.90;;;;;;10455208;28;20056;-24
2023/03/26 02:39:41;;;;;;;9.65;2.63;;;17.90;91.80;;;;;;10467249;28;20167;-23
2023/03/26 02:44:44;;;;;;;14.13;2.17;;;18.00;91.20;;;;;;10444688;28;20045;-22
2023/03/26 02:49:46;;;;;;;8.57;2.20;;;18.10;90.80;;;;;;10444744;28;20055;-23
2023/03/26 02:54:48;;;;;;;10.13;2.28;;;17.90;91.90;;;;;;10477379;28;20385;-23
2023/03/26 02:59:51;;;;;;;9.17;2.47;;;18.00;91.40;;;;;;10462899;28;20409;-23
2023/03/26 03:05:00;;;;;;;13.73;2.60;;;17.50;93.20;;;;;;10461226;28;21073;-23
2023/03/26 03:10:02;;;;;;;9.85;1.92;;;16.00;99.90;;;;;;10475457;28;20060;-23
2023/03/26 03:15:07;;;;;;;9.25;1.77;;;17.10;95.60;;;;;;10450465;28;20060;-23
2023/03/26 03:20:09;;;;;;;7.68;2.17;;;17.80;92.40;;;;;;10461737;28;20095;-23
2023/03/26 03:25:13;;;;;;;9.98;2.00;;;18.00;91.40;;;;;;10449372;28;20055;-26
2023/03/26 03:30:16;;;;;;;7.88;1.73;;;18.10;90.90;;;;;;10456052;28;20429;-23
2023/03/26 03:35:18;;;;;;;8.00;2.50;;;18.10;91.10;;;;;;10465048;28;20053;-23
2023/03/26 03:40:20;;;;;;;9.00;2.15;;;18.10;90.60;;;;;;10466334;28;20049;-24
2023/03/26 03:45:23;;;;;;;8.50;1.42;;;18.10;90.60;;;;;;10455916;28;20076;-26
2023/03/26 03:50:25;;;;;;;6.65;1.70;;;18.20;90.40;;;;;;10464718;28;20606;-23
2023/03/26 03:55:27;;;;;;;8.82;2.22;;;18.10;90.40;;;;;;10475613;28;20086;-23
2023/03/26 04:00:31;;;;;;;7.87;2.10;;;18.10;90.60;;;;;;10467409;28;20583;-24
2023/03/26 04:05:33;;;;;;;8.05;1.73;;;18.10;90.40;;;;;;10460702;28;21018;-23
2023/03/26 04:10:35;;;;;;;6.78;1.77;;;18.20;90.40;;;;;;10462298;28;20048;-23
2023/03/26 04:15:39;;;;;;;9.70;1.87;;;18.20;90.30;;;;;;10469641;28;20721;-26
2023/03/26 04:20:45;;;;;;;9.07;1.52;;;18.20;90.30;;;;;;10453821;28;20733;-29
2023/03/26 04:25:52;;;;;;;4.55;1.45;;;18.20;90.20;;;;;;10454212;28;20071;-23
2023/03/26 04:30:59;;;;;;;7.40;1.98;;;18.10;90.20;;;;;;10464753;28;20045;-23
2023/03/26 04:36:02;;;;;;;6.97;1.90;;;18.20;90.30;;;;;;10450824;28;20053;-24
2023/03/26 04:41:06;;;;;;;7.50;1.73;;;18.20;90.30;;;;;;10454132;28;20099;-23
2023/03/26 04:46:10;;;;;;;9.55;2.05;;;18.10;90.30;;;;;;10478337;28;20049;-23
2023/03/26 04:51:17;;;;;;;4.25;1.27;;;18.10;90.40;;;;;;10463241;28;20051;-24
2023/03/26 04:56:32;;;;;;;7.22;1.42;;;18.20;90.10;;;;;;10470896;28;20045;-24
2023/03/26 05:01:36;;;;;;;6.13;1.80;;;18.20;89.50;;;;;;10461952;28;20041;-25
2023/03/26 05:06:38;;;;;;;6.68;1.90;;;18.20;90.10;;;;;;10453043;28;20056;-23
2023/03/26 05:11:40;;;;;;;4.95;1.60;;;18.30;90.10;;;;;;10461279;28;20068;-23
2023/03/26 05:16:45;;;;;;;6.05;1.40;;;18.40;90.00;;;;;;10454640;28;20056;-23
2023/03/26 05:21:47;;;;;;;5.00;1.35;;;18.40;89.80;;;;;;10450538;28;20072;-24
2023/03/26 05:26:49;;;;;;;4.05;1.23;;;18.50;89.40;;;;;;10453731;28;20059;-24
2023/03/26 05:31:52;;;;;;;4.75;1.60;;;18.60;89.50;;;;;;10455307;28;20049;-24
2023/03/26 05:36:54;;;;;;;3.95;1.65;;;18.60;89.50;;;;;;10453743;28;20072;-23
2023/03/26 05:41:56;;;;;;;4.72;1.42;;;18.70;89.20;;;;;;10449438;28;20525;-23
2023/03/26 05:46:59;;;;;;;3.58;1.20;;;18.70;89.10;;;;;;10456283;28;20045;-21
2023/03/26 05:52:01;;;;;;;6.25;1.30;;;18.80;89.00;;;;;;10458684;28;20485;-23
2023/03/26 05:57:03;;;;;;;6.35;1.20;;;18.80;89.10;;;;;;10456536;28;20053;-23
2023/03/26 06:14:52;;;;;;;3.97;1.30;;;18.80;88.30;;;;;;10493108;27;20467;-23
2023/03/26 06:19:54;;;;;;;7.30;1.25;;;18.90;89.10;;;;;;10516707;28;20132;-23
2023/03/26 06:24:56;;;;;;;5.00;1.50;;;18.90;89.20;;;;;;10512415;28;20139;-23
2023/03/26 06:29:59;;;;;;;5.90;1.45;;;18.90;89.20;;;;;;10504790;28;20087;-23
2023/03/26 06:35:01;;;;;;;6.22;1.25;;;19.00;89.30;;;;;;10513315;28;20094;-23
2023/03/26 06:40:03;;;;;;;5.85;1.58;;;19.00;89.40;;;;;;10510796;28;20090;-23
2023/03/26 06:45:07;;;;;;;;;;;19.00;89.30;;;;;;10523599;28;20052;-23
2023/03/26 06:50:10;;;;;;;3.53;1.30;;;19.00;89.50;;;;;;10513580;28;20295;-23
2023/03/26 06:55:13;;;;;;;1.63;0.75;;;19.00;89.30;;;;;;10516045;28;20054;-23
2023/03/26 07:00:17;;;;;;;4.00;1.77;;;19.10;89.10;;;;;;10523623;28;20148;-24
2023/03/26 07:05:19;;;;;;;5.28;1.55;;;19.10;89.10;;;;;;10527113;28;20128;-23
2023/03/26 07:10:20;;;;;;;5.85;1.27;;;19.10;89.20;;;;;;10521231;28;20106;-24
2023/03/26 07:15:24;;;;;;;5.10;1.52;;;19.10;89.00;;;;;;10537076;28;20127;-24
2023/03/26 07:20:26;;;;;;;4.75;1.20;;;19.10;89.00;;;;;;10535194;28;20105;-22
2023/03/26 07:25:28;;;;;;;5.60;1.27;;;19.10;89.10;;;;;;10509952;28;20048;-23
2023/03/26 07:30:37;;;;;;;;;;;19.10;89.30;;;;;;10505904;28;20050;-24
2023/03/26 07:35:46;;;;;;;4.30;1.50;;;19.10;89.50;;;;;;10484407;28;19930;-24
2023/03/26 07:40:55;;;;;;;3.92;1.00;;;19.10;89.70;;;;;;10505521;28;20094;-24
2023/03/26 07:45:59;;;;;;;5.95;1.45;;;19.10;89.40;;;;;;10494275;28;20725;-24
2023/03/26 07:51:02;;;;;;;4.65;1.13;;;19.10;89.70;;;;;;10493464;28;20044;-25
2023/03/26 07:56:09;;;;;;;3.15;1.25;;;19.10;90.00;;;;;;10503709;28;20503;-24
2023/03/26 08:01:20;;;;;;;6.53;1.50;;;18.90;90.90;;;;;;10497689;28;20040;-24
2023/03/26 08:06:32;;;;;;;10.13;1.95;;;18.90;91.40;;;;;;10478064;28;20133;-24
2023/03/26 08:11:37;;;;;;;;;;;19.00;91.00;;;;;;10495130;28;20471;-24
2023/03/26 08:16:49;;;;;;;2.22;1.02;;;19.00;91.00;;;;;;10474862;28;20019;-24
2023/03/26 08:21:55;;;;;;;4.40;1.63;;;19.10;90.80;;;;;;10486000;28;20067;-24
2023/03/26 08:27:05;;;;;;;2.72;1.10;;;19.00;91.20;;;;;;10481175;28;20465;-23
2023/03/26 08:32:14;;;;;;;8.35;1.60;;;19.10;91.10;;;;;;10473134;28;20087;-25
2023/03/26 08:37:16;;;;;;;5.97;1.27;;;19.10;91.40;;;;;;10482267;28;20044;-21
2023/03/26 08:42:57;;;;;;;4.13;1.08;;;19.10;91.30;;;;;;10464483;28;20102;-24
2023/03/26 08:48:37;;;;;;;3.03;1.15;;;19.10;91.50;;;;;;10480853;28;20064;-24
2023/03/26 08:54:12;;;;;;;3.28;0.88;;;19.10;91.20;;;;;;10484054;28;20707;-25
2023/03/26 08:59:35;;;;;;;11.15;1.42;;;19.20;91.10;;;;;;10494583;28;20580;-24
2023/03/26 09:05:09;;;;;;;4.18;1.50;;;19.20;90.90;;;;;;10490405;28;20047;-24
2023/03/26 09:10:41;;;;;;;5.68;1.17;;;19.20;91.30;;;;;;10490991;28;20472;-24
2023/03/26 09:16:05;;;;;;;5.97;1.27;;;19.20;91.10;;;;;;10482598;28;20045;-25
2023/03/26 09:21:55;;;;;;;5.18;1.10;;;19.20;91.30;;;;;;10486188;28;20102;-25
2023/03/26 09:27:12;;;;;;;10.13;1.38;;;19.40;91.00;;;;;;10491089;28;20486;-25
2023/03/26 09:32:31;;;;;;;5.57;1.40;;;19.40;91.30;;;;;;10510542;28;20087;-25
2023/03/26 09:37:50;;;;;;;7.10;1.48;;;19.40;91.10;;;;;;10480001;28;20040;-25
2023/03/26 09:42:57;;;;;;;3.40;0.90;;;19.40;90.90;;;;;;10476817;28;20500;-23
2023/03/26 09:48:26;;;;;;;4.85;1.20;;;19.40;91.00;;;;;;10466177;28;20044;-23
2023/03/26 09:53:52;;;;;;;4.78;0.82;;;19.40;91.00;;;;;;10474641;28;20088;-25
2023/03/26 09:59:43;;;;;;;4.85;0.90;;;19.40;91.10;;;;;;10481872;28;20041;-25
2023/03/26 10:05:04;;;;;;;8.90;1.30;;;19.40;91.10;;;;;;10429647;28;20536;-24
2023/03/26 10:10:18;;;;;;;3.75;1.63;;;19.30;91.40;;;;;;10479072;28;20056;-23
2023/03/26 10:15:32;;;;;;;8.43;1.50;;;19.30;91.20;;;;;;10479338;28;20141;-23
2023/03/26 10:20:45;;;;;;;6.03;1.30;;;19.40;91.40;;;;;;10490839;28;20048;-22
2023/03/26 10:25:57;;;;;;;5.85;1.80;;;19.30;91.40;;;;;;10482215;28;20098;-24
2023/03/26 10:31:16;;;;;;;5.40;1.52;;;19.30;91.70;;;;;;10477833;28;20060;-25
2023/03/26 10:36:30;;;;;;;5.57;1.27;;;19.30;91.30;;;;;;10469141;28;20095;-25
2023/03/26 10:41:43;;;;;;;3.53;1.35;;;19.30;91.40;;;;;;10480306;28;20044;-25
2023/03/26 10:47:27;;;;;;;2.50;0.95;;;19.30;91.30;;;;;;10485557;28;20547;-24
2023/03/26 10:52:34;;;;;;;4.82;1.33;;;19.20;91.50;;;;;;10481803;28;20637;-23
2023/03/26 10:57:44;;;;;;;6.28;1.55;;;19.30;91.50;;;;;;10471734;28;20082;-24
2023/03/26 11:03:03;;;;;;;2.97;0.95;;;19.30;91.30;;;;;;10500895;28;20127;-23
2023/03/26 11:08:07;;;;;;;5.43;1.10;;;19.40;91.00;;;;;;10484538;28;20058;-24
2023/03/26 11:13:21;;;;;;;3.15;1.42;;;19.40;90.90;;;;;;10489388;28;20064;-24
2023/03/26 11:18:30;;;;;;;3.55;0.95;;;19.30;91.00;;;;;;10485968;28;20048;-26
2023/03/26 11:23:35;;;;;;;5.03;1.20;;;19.60;90.60;;;;;;10484337;28;20100;-25
2023/03/26 11:29:06;;;;;;;5.72;1.70;;;19.80;89.50;;;;;;10483183;28;20326;-24
2023/03/26 11:34:13;;;;;;;7.18;1.50;;;19.90;87.00;;;;;;10474280;28;20048;-25
2023/03/26 11:39:23;;;;;;;14.27;1.98;;;19.90;84.80;;;;;;10500737;28;20119;-25
2023/03/26 11:44:29;;;;;;;7.20;1.63;;;19.80;84.70;;;;;;10491734;28;20041;-26
2023/03/26 11:49:31;;;;;;;7.93;1.65;;;19.90;81.70;;;;;;10480436;28;20055;-25
2023/03/26 11:54:33;;;;;;;12.77;2.33;;;19.80;81.50;;;;;;10480328;28;20562;-32
2023/03/26 11:59:42;;;;;;;14.13;2.03;;;19.60;82.20;;;;;;10486230;28;20051;-23
2023/03/26 12:04:45;;;;;;;5.13;1.60;;;19.80;81.60;;;;;;10483493;28;20045;-24
2023/03/26 12:09:51;;;;;;;6.88;1.88;;;19.90;80.50;;;;;;10480982;28;20131;-24
2023/03/26 12:14:55;;;;;;;7.07;1.67;;;20.00;77.40;;;;;;10484976;28;20071;-25
2023/03/26 12:19:57;;;;;;;9.43;1.58;;;19.60;80.50;;;;;;10492571;28;20127;-25
2023/03/26 12:25:03;;;;;;;;;;;19.60;81.40;;;;;;10485467;28;20052;-25
2023/03/26 12:30:12;;;;;;;15.38;2.13;;;19.60;80.40;;;;;;10489325;28;19924;-25
2023/03/26 12:35:18;;;;;;;11.77;2.03;;;19.40;82.40;;;;;;10487954;28;20135;-22
2023/03/26 12:40:32;;;;;;;10.50;1.88;;;19.50;83.10;;;;;;10486764;28;20075;-26
2023/03/26 12:45:41;;;;;;;11.73;2.28;;;19.60;82.60;;;;;;10486667;28;20051;-23
2023/03/26 12:50:55;;;;;;;13.45;2.10;;;19.70;81.30;;;;;;10470694;28;20114;-25
2023/03/26 12:56:01;;;;;;;5.28;1.60;;;19.80;80.40;;;;;;10471731;28;20048;-24
2023/03/26 13:01:14;;;;;;;9.73;2.08;;;19.80;79.90;;;;;;10480535;28;20459;-23
2023/03/26 13:06:30;;;;;;;6.18;1.77;;;19.70;79.90;;;;;;10483551;28;20182;-23
2023/03/26 13:11:40;;;;;;;7.25;1.90;;;19.70;79.20;;;;;;10485196;28;20102;-27
2023/03/26 13:16:48;;;;;;;5.22;1.52;;;19.60;78.60;;;;;;10476220;28;20492;-22
2023/03/26 13:22:04;;;;;;;7.68;1.80;;;19.10;76.80;;;;;;10495113;28;20454;-23
2023/03/26 13:27:28;;;;;;;6.72;1.48;;;19.50;76.80;;;;;;10491343;28;20041;-23
2023/03/26 13:32:43;;;;;;;10.00;1.52;;;19.30;77.00;;;;;;10472615;28;20060;-23
2023/03/26 13:37:52;;;;;;;12.50;2.22;;;19.40;74.30;;;;;;10467424;28;20535;-23
2023/03/26 13:43:26;;;;;;;8.48;2.20;;;19.10;72.10;;;;;;10473098;28;20041;-25
2023/03/26 13:48:33;;;;;;;7.78;1.63;;;19.10;75.10;;;;;;10454988;28;20068;-25
2023/03/26 13:53:43;;;;;;;7.40;1.65;;;19.10;73.60;;;;;;10481080;28;20488;-23
2023/03/26 13:58:50;;;;;;;10.48;1.58;;;18.70;75.80;;;;;;10476875;28;20040;-23
2023/03/26 14:03:58;;;;;;;7.05;2.03;;;19.00;74.10;;;;;;10478331;28;20095;-23
2023/03/26 14:09:05;;;;;;;9.98;1.70;;;19.40;71.50;;;;;;10468975;28;20278;-23
2023/03/26 14:14:13;;;;;;;6.07;1.63;;;19.40;73.00;;;;;;10477727;28;20074;-23
2023/03/26 14:19:46;;;;;;;8.98;1.65;;;19.10;73.90;;;;;;10484815;28;20045;-24
2023/03/26 14:25:01;;;;;;;4.05;1.38;;;19.40;73.80;;;;;;10471720;28;20041;-25
2023/03/26 14:30:33;;;;;;;7.32;1.58;;;18.30;73.40;;;;;;10459318;28;20060;-21
2023/03/26 14:35:41;;;;;;;6.00;1.60;;;18.20;79.60;;;;;;10487632;28;20044;-23
2023/03/26 14:40:56;;;;;;;8.93;2.33;;;18.70;80.00;;;;;;10499428;28;20089;-23
2023/03/26 14:46:10;;;;;;;6.57;1.90;;;19.40;79.50;;;;;;10501154;28;20048;-22
2023/03/26 14:51:21;;;;;;;11.70;1.70;;;18.60;87.10;;;;;;10491378;28;20476;-23
2023/03/26 14:56:48;;;;;;;16.97;2.07;;;18.60;82.70;;;;;;10497393;28;20055;-21
2023/03/26 15:02:22;;;;;;;14.73;2.35;;;18.30;79.00;;;;;;10483441;28;20064;-23
2023/03/26 15:07:51;;;;;;;12.90;1.77;;;18.40;89.30;;;;;;10476181;28;20446;-23
2023/03/26 15:13:19;;;;;;;8.85;1.55;;;18.10;90.30;;;;;;10487360;28;20114;-23
2023/03/26 15:19:16;;;;;;;13.38;2.47;;;18.80;89.30;;;;;;10447929;28;20052;-24
2023/03/26 15:24:37;;;;;;;10.00;2.58;;;19.10;90.20;;;;;;10439759;28;20053;-24
2023/03/26 15:29:57;;;;;;;16.25;2.60;;;19.00;90.40;;;;;;10446027;28;20072;-23
2023/03/26 15:35:23;;;;;;;13.68;3.28;;;18.80;91.70;;;;;;10451747;28;21579;-23
2023/03/26 15:40:40;;;;;;;16.65;2.40;;;18.90;80.70;;;;;;10442255;28;20045;-22
2023/03/26 15:45:46;;;;;;;16.10;2.72;;;18.40;92.60;;;;;;10449930;28;20067;-23
2023/03/26 15:50:54;;;;;;;18.20;3.20;;;17.80;88.40;;;;;;10449184;28;20495;-23
2023/03/26 15:56:19;;;;;;;9.88;2.38;;;17.40;60.20;;;;;;10449664;28;20126;-23
2023/03/26 16:01:35;;;;;;;10.20;1.42;;;18.10;91.20;;;;;;10453705;28;20059;-23
2023/03/26 16:06:47;;;;;;;19.20;1.95;;;18.30;71.30;;;;;;10458126;28;20139;-22
2023/03/26 16:11:56;;;;;;;9.45;2.30;;;17.80;90.20;;;;;;10432749;28;20049;-23
2023/03/26 16:16:59;;;;;;;11.07;1.80;;;18.30;69.10;;;;;;10447288;28;20061;-23
2023/03/26 16:22:03;;;;;;;14.05;1.77;;;18.30;90.70;;;;;;10461420;28;20053;-24
2023/03/26 16:27:28;;;;;;;4.30;1.88;;;18.10;71.20;;;;;;10430585;28;20148;-24
2023/03/26 16:32:33;;;;;;;11.57;2.03;;;17.90;85.90;;;;;;10455873;28;20045;-21
2023/03/26 16:37:42;;;;;;;12.02;2.15;;;16.90;76.50;;;;;;10452769;28;20057;-24
2023/03/26 16:42:49;;;;;;;10.43;1.50;;;17.30;70.90;;;;;;10453954;28;20044;-21
2023/03/26 16:47:59;;;;;;;12.05;2.05;;;18.40;93.60;;;;;;10444161;28;20106;-23
2023/03/26 16:53:20;;;;;;;11.60;2.33;;;17.60;96.00;;;;;;10449572;28;20588;-21
2023/03/26 16:58:30;;;;;;;18.05;2.22;;;19.30;91.60;;;;;;10439900;28;20091;-23
2023/03/26 17:03:41;;;;;;;11.68;1.73;;;18.70;92.70;;;;;;10445254;28;20463;-24
2023/03/26 17:08:53;;;;;;;9.15;1.90;;;18.80;91.30;;;;;;10447708;28;20122;-22
2023/03/26 17:14:06;;;;;;;9.25;2.15;;;18.30;90.10;;;;;;10442935;28;20870;-24
2023/03/26 17:19:20;;;;;;;12.05;1.88;;;18.70;60.40;;;;;;10446785;28;20614;-24
2023/03/26 17:24:34;;;;;;;8.27;1.65;;;17.60;97.30;;;;;;10444050;28;20045;-22
2023/03/26 17:29:58;;;;;;;16.73;2.22;;;17.20;98.50;;;;;;10437527;28;20045;-22
2023/03/26 17:35:02;;;;;;;7.13;1.20;;;17.30;85.50;;;;;;10435283;28;20048;-23
2023/03/26 17:40:46;;;;;;;13.85;1.98;;;16.90;97.20;;;;;;10444228;28;20048;-26
2023/03/26 17:45:52;;;;;;;7.28;1.80;;;16.80;99.90;;;;;;10447215;28;20041;-23
2023/03/26 17:50:57;;;;;;;14.10;2.03;;;18.10;99.60;;;;;;10436895;28;20088;-24
2023/03/26 17:56:03;;;;;;;11.77;2.35;;;17.30;95.30;;;;;;10441741;28;20090;-23
2023/03/26 18:01:14;;;;;;;13.90;2.30;;;17.50;98.30;;;;;;10441731;28;20127;-22
2023/03/26 18:06:40;;;;;;;6.15;1.95;;;16.50;81.10;;;;;;10437068;28;20052;-22
2023/03/26 18:12:11;;;;;;;7.07;1.80;;;17.30;99.60;;;;;;10444808;28;20085;-23
2023/03/26 18:17:14;;;;;;;8.93;1.88;;;18.70;90.20;;;;;;10444423;28;20053;-24
2023/03/26 18:22:26;;;;;;;8.85;1.35;;;18.70;93.90;;;;;;10437726;28;20052;-23
2023/03/26 18:27:37;;;;;;;8.30;1.67;;;19.10;91.60;;;;;;10435270;28;20125;-23
2023/03/26 18:32:51;;;;;;;11.02;1.70;;;18.20;93.60;;;;;;10435023;28;20057;-24
2023/03/26 18:37:57;;;;;;;9.25;1.38;;;19.00;92.80;;;;;;10440804;28;20102;-23
2023/03/26 18:43:00;;;;;;;14.30;1.83;;;17.90;90.80;;;;;;10444274;28;20536;-23
2023/03/26 18:48:06;;;;;;;11.02;1.85;;;17.40;83.30;;;;;;10443599;28;20448;-22
2023/03/26 18:53:16;;;;;;;13.00;2.40;;;17.20;96.60;;;;;;10444114;28;20135;-23
2023/03/26 18:58:24;;;;;;;6.30;1.60;;;16.70;99.20;;;;;;10430432;28;20533;-24
2023/03/26 19:03:30;;;;;;;6.40;1.30;;;17.00;96.00;;;;;;10441416;28;20141;-24
2023/03/26 19:08:32;;;;;;;3.65;1.25;;;17.90;80.20;;;;;;10440147;28;20052;-24
2023/03/26 19:13:37;;;;;;;4.05;1.77;;;17.10;98.60;;;;;;10438552;28;20132;-24
2023/03/26 19:18:41;;;;;;;3.88;1.58;;;18.10;93.90;;;;;;10436800;28;20094;-24
2023/03/26 19:23:45;;;;;;;9.07;1.95;;;18.00;75.60;;;;;;10446081;28;20053;-23
2023/03/26 19:28:50;;;;;;;7.93;2.20;;;18.50;91.40;;;;;;10446660;28;20639;-24
2023/03/26 19:33:58;;;;;;;7.68;1.60;;;18.80;90.70;;;;;;10449234;28;20140;-23
2023/03/26 19:39:11;;;;;;;6.22;1.42;;;18.80;90.40;;;;;;10442029;28;20053;-23
2023/03/26 19:44:20;;;;;;;8.40;2.28;;;18.90;89.30;;;;;;10432876;28;20064;-22
2023/03/26 19:49:28;;;;;;;9.50;1.42;;;19.10;86.30;;;;;;10450657;28;20056;-25
2023/03/26 19:54:30;;;;;;;11.63;2.08;;;18.60;84.10;;;;;;10446610;28;20076;-25
2023/03/26 19:59:31;;;;;;;5.90;1.80;;;18.30;91.00;;;;;;10444126;28;20052;-26
2023/03/26 20:04:35;;;;;;;8.38;2.33;;;18.60;90.10;;;;;;10430198;28;20086;-22
2023/03/26 20:09:37;;;;;;;12.82;2.65;;;17.60;91.60;;;;;;10446922;28;20140;-24
2023/03/26 20:14:41;;;;;;;5.60;1.63;;;17.60;91.50;;;;;;10447040;28;20079;-23
2023/03/26 20:19:45;;;;;;;11.50;1.98;;;17.90;89.70;;;;;;10442193;28;20737;-23
2023/03/26 20:24:47;;;;;;;8.80;2.22;;;18.10;91.00;;;;;;10440711;28;20402;-24
2023/03/26 20:29:49;;;;;;;13.98;2.17;;;17.70;70.70;;;;;;10447983;28;20049;-23
2023/03/26 20:34:52;;;;;;;8.98;1.55;;;18.30;83.40;;;;;;10445860;28;20143;-24
2023/03/26 20:39:54;;;;;;;11.70;1.98;;;16.80;94.00;;;;;;10449867;28;20052;-23
2023/03/26 20:44:56;;;;;;;8.07;2.00;;;17.30;93.60;;;;;;10457348;28;20127;-23
2023/03/26 20:50:00;;;;;;;8.93;1.92;;;16.20;90.80;;;;;;10442533;28;20048;-24
2023/03/26 20:55:02;;;;;;;9.38;1.63;;;17.20;93.90;;;;;;10454950;28;20096;-24
2023/03/26 21:00:13;;;;;;;10.82;1.75;;;17.40;68.50;;;;;;10459238;28;20468;-23
2023/03/26 21:05:23;;;;;;;8.00;1.30;;;17.00;86.60;;;;;;10447301;28;20111;-23
2023/03/26 21:10:28;;;;;;;6.53;1.40;;;17.40;73.20;;;;;;10440895;28;20142;-23
2023/03/26 21:15:31;;;;;;;7.82;1.10;;;17.30;92.70;;;;;;10444514;28;20049;-23
2023/03/26 21:20:36;;;;;;;5.38;1.15;;;17.50;90.90;;;;;;10436613;28;21303;-23
2023/03/26 21:25:45;;;;;;;5.22;1.45;;;17.60;90.90;;;;;;10435399;28;20056;-23
2023/03/26 21:30:47;;;;;;;8.02;1.55;;;18.10;88.20;;;;;;10435705;28;20042;-23
2023/03/26 21:35:51;;;;;;;6.35;1.45;;;17.70;86.80;;;;;;10438725;28;20512;-23
2023/03/26 21:40:54;;;;;;;2.90;1.00;;;17.90;89.50;;;;;;10444045;28;20044;-23
2023/03/26 21:45:57;;;;;;;5.30;1.30;;;18.80;82.20;;;;;;10429003;28;20048;-23
2023/03/26 21:51:03;;;;;;;6.95;1.38;;;19.10;79.70;;;;;;10440825;28;20051;-24
2023/03/26 21:56:17;;;;;;;4.75;1.15;;;19.10;79.80;;;;;;10435864;28;20554;-24
2023/03/26 22:01:27;;;;;;;6.50;1.17;;;18.50;83.20;;;;;;10443201;28;20072;-23
2023/03/26 22:06:38;;;;;;;3.25;1.15;;;18.70;82.80;;;;;;10440230;28;21159;-24
2023/03/26 22:11:40;;;;;;;4.93;1.40;;;18.60;80.20;;;;;;10437091;28;20080;-24
2023/03/26 22:16:43;;;;;;;5.47;1.52;;;18.80;80.60;;;;;;10436633;28;20057;-23
2023/03/26 22:21:46;;;;;;;2.90;1.05;;;19.00;79.20;;;;;;10440021;28;20769;-24
2023/03/26 22:26:47;;;;;;;3.70;0.85;;;19.10;78.70;;;;;;10431747;28;20049;-24
2023/03/26 22:31:49;;;;;;;4.40;1.00;;;18.70;80.80;;;;;;10428237;28;20124;-23
2023/03/26 22:36:53;;;;;;;6.00;1.15;;;16.90;89.00;;;;;;10431636;28;20049;-24
2023/03/26 22:41:55;;;;;;;3.35;0.93;;;17.10;90.00;;;;;;10442435;28;20079;-23
2023/03/26 22:46:57;;;;;;;3.80;0.90;;;18.10;81.10;;;;;;10434927;28;20511;-24
2023/03/26 22:52:00;;;;;;;5.45;1.13;;;18.60;80.10;;;;;;10440891;28;20045;-23
2023/03/26 22:57:02;;;;;;;5.25;0.88;;;18.20;83.30;;;;;;10435036;28;20049;-22
2023/03/26 23:02:04;;;;;;;6.45;1.02;;;17.50;87.40;;;;;;10450274;28;20052;-23
2023/03/26 23:07:07;;;;;;;3.03;1.17;;;17.30;82.40;;;;;;10448430;28;20057;-22
2023/03/26 23:12:09;;;;;;;2.70;1.00;;;16.90;87.90;;;;;;10445031;28;20044;-23
2023/03/26 23:17:13;;;;;;;7.43;0.75;;;16.70;91.50;;;;;;10449429;28;20056;-22
2023/03/26 23:22:16;;;;;;;5.88;0.90;;;17.50;86.80;;;;;;10453582;28;20131;-23
2023/03/26 23:27:20;;;;;;;9.48;1.10;;;17.90;84.60;;;;;;10452085;28;20497;-22
2023/03/26 23:32:23;;;;;;;6.65;1.02;;;14.90;66.20;;;;;;10444686;28;21114;-23
2023/03/26 23:37:28;;;;;;;9.85;1.85;;;12.00;95.60;;;;;;10445743;28;20049;-24
2023/03/26 23:42:30;;;;;;;4.28;0.82;;;12.20;82.50;;;;;;10447940;28;20405;-23
2023/03/26 23:47:33;;;;;;;1.88;0.63;;;14.00;99.90;;;;;;10454127;28;20079;-24
2023/03/26 23:52:37;;;;;;;8.93;1.10;;;14.00;90.80;;;;;;10449515;28;20049;-23
2023/03/26 23:57:39;;;;;;;7.88;1.00;;;14.50;98.20;;;;;;10451304;28;20060;-23
